Main page
METAR-TAF:

METAR-TAF

Airports :

Nuremberg Airport

Nuremberg, Germany

latitude: 49-30N, longitude: 011-03E, elevation: 318 m

Current weather observation

The report was made 37 minutes ago, at 12:50 UTC
Wind 8 kt from the East/Southeast, varying between East and South/Southeast
Temperature 23°C
Humidity 16%
Pressure 1019 hPa
Visibility 10 km or more
no clouds below 1500 m and no cumulonimbus

METAR: EDDN 211250Z 11008KT 080V160 CAVOK 23/M04 Q1019 NOSIG

Time: 15:27 (13:27 UTC)

Forecast

The report was made 2 hours and 27 minutes ago, at 11:00 UTC
Forecast valid from 21 at 12 UTC to 22 at 12 UTC
Wind 8 kt from the East
Visibility 10 km or more
no clouds below 1500 m and no cumulonimbus
Becoming
from 21 at 18 UTC to 21 at 20 UTC
Wind 2 kt from variable directions
Becoming
from 22 at 07 UTC to 22 at 09 UTC
Wind 10 kt from the East

TAF: EDDN 211100Z 2112/2212 09008KT CAVOK BECMG 2118/2120 VRB02KT BECMG 2207/2209 10010KT

Weather observations and forecasts of more than 4000 airports (METAR and TAF reports).

The available stations are represented by yellow and red dots on the map.

Hover mouse over dot to see the name of the station.

Then click to see weather observations and forecasts.

To change the map : click on the green buttons with a black cross to zoom in, on the green button with a dash to zoom out, or on the green arrows for adjacent maps.


METAR-TAF: